Time;durP1;ratioP1;P1;durP2;ratioP2;P2;SDS_P1;SDS_P2;PMS_P1;PMS_P2;Temp;Humidity;BMP_temperature;BMP_pressure;BME280_temperature;BME280_humidity;BME280_pressure;Samples;Min_cycle;Max_cycle;Signal;HPM_P1;HPM_P2
2021/12/03 00:00:38;;;;;;;2.45;1.80;;;;;;;;;;5033961;28;20025;-52
2021/12/03 00:03:05;;;;;;;11.02;5.25;;;;;;;;;;5034049;28;20466;-49
2021/12/03 00:05:32;;;;;;;14.45;6.90;;;;;;;;;;5034122;28;20071;-51
2021/12/03 00:07:58;;;;;;;7.45;3.20;;;;;;;;;;5033845;28;20364;-53
2021/12/03 00:10:26;;;;;;;3.97;2.15;;;;;;;;;;5032605;28;20113;-50
2021/12/03 00:12:53;;;;;;;3.00;2.05;;;;;;;;;;5033812;28;20036;-52
2021/12/03 00:15:20;;;;;;;4.93;2.08;;;;;;;;;;5033566;28;20029;-52
2021/12/03 00:17:46;;;;;;;4.70;2.20;;;;;;;;;;5033731;28;20017;-50
2021/12/03 00:20:14;;;;;;;2.35;1.48;;;;;;;;;;5033605;28;20025;-47
2021/12/03 00:22:41;;;;;;;8.25;1.95;;;;;;;;;;5033761;28;20384;-52
2021/12/03 00:25:07;;;;;;;4.13;1.80;;;;;;;;;;5034098;28;20053;-53
2021/12/03 00:27:33;;;;;;;4.13;2.08;;;;;;;;;;5033483;28;20036;-54
2021/12/03 00:30:00;;;;;;;4.40;1.77;;;;;;;;;;5033566;28;20084;-51
2021/12/03 00:32:26;;;;;;;2.33;1.65;;;;;;;;;;5033577;28;20116;-55
2021/12/03 00:34:52;;;;;;;4.93;1.67;;;;;;;;;;5033737;28;20029;-51
2021/12/03 00:37:18;;;;;;;3.28;1.42;;;;;;;;;;5033743;28;20021;-53
2021/12/03 00:39:44;;;;;;;4.78;1.60;;;;;;;;;;5033120;28;20029;-51
2021/12/03 00:42:15;;;;;;;3.28;1.73;;;;;;;;;;5032372;28;20037;-53
2021/12/03 00:44:41;;;;;;;2.80;1.60;;;;;;;;;;5033169;28;20096;-50
2021/12/03 00:47:07;;;;;;;2.15;1.35;;;;;;;;;;5033493;28;20474;-50
2021/12/03 00:49:33;;;;;;;3.72;1.73;;;;;;;;;;5033340;28;20079;-54
2021/12/03 00:51:59;;;;;;;2.58;1.63;;;;;;;;;;5033012;28;20036;-48
2021/12/03 00:54:26;;;;;;;10.77;3.40;;;;;;;;;;5033498;28;20033;-49
2021/12/03 00:56:52;;;;;;;12.73;3.40;;;;;;;;;;5033691;28;20033;-48
2021/12/03 00:59:18;;;;;;;6.63;2.28;;;;;;;;;;5033190;28;20485;-50
2021/12/03 01:01:44;;;;;;;9.00;2.67;;;;;;;;;;5033341;28;20351;-49
2021/12/03 01:04:10;;;;;;;5.00;2.70;;;;;;;;;;5033264;28;20030;-50
2021/12/03 01:06:36;;;;;;;3.10;1.65;;;;;;;;;;5033419;28;20045;-51
2021/12/03 01:09:03;;;;;;;5.13;1.40;;;;;;;;;;5033389;28;20029;-51
2021/12/03 01:11:31;;;;;;;8.68;1.90;;;;;;;;;;5033384;28;20052;-49
2021/12/03 01:14:00;;;;;;;3.08;1.50;;;;;;;;;;5033054;28;20065;-49
2021/12/03 01:16:27;;;;;;;2.92;1.50;;;;;;;;;;5033184;28;20077;-47
2021/12/03 01:18:53;;;;;;;3.83;1.60;;;;;;;;;;5033223;28;20022;-51
2021/12/03 01:21:19;;;;;;;6.13;2.83;;;;;;;;;;5032965;28;20482;-48
2021/12/03 01:23:46;;;;;;;5.38;2.53;;;;;;;;;;5033054;28;20167;-49
2021/12/03 01:26:12;;;;;;;5.70;2.70;;;;;;;;;;5032738;28;20117;-52
2021/12/03 01:28:38;;;;;;;4.85;2.88;;;;;;;;;;5033021;28;20060;-53
2021/12/03 01:31:05;;;;;;;9.23;3.88;;;;;;;;;;5033149;28;20155;-48
2021/12/03 01:33:31;;;;;;;7.13;4.05;;;;;;;;;;5033742;28;20068;-51
2021/12/03 01:35:57;;;;;;;5.63;2.30;;;;;;;;;;5032976;28;20029;-50
2021/12/03 01:38:23;;;;;;;4.03;1.65;;;;;;;;;;5032898;28;20025;-54
2021/12/03 01:40:49;;;;;;;2.35;1.40;;;;;;;;;;5033033;28;20020;-53
2021/12/03 01:43:22;;;;;;;2.92;1.45;;;;;;;;;;5031633;28;20026;-52
2021/12/03 01:45:49;;;;;;;3.00;1.70;;;;;;;;;;5033264;28;20030;-49
2021/12/03 01:48:15;;;;;;;5.40;2.22;;;;;;;;;;5032754;28;20097;-51
2021/12/03 01:50:43;;;;;;;6.07;2.25;;;;;;;;;;5033766;28;20026;-52
2021/12/03 01:53:10;;;;;;;4.38;1.63;;;;;;;;;;5036119;28;20405;-54
2021/12/03 01:55:37;;;;;;;2.42;1.50;;;;;;;;;;5036604;28;20025;-54
2021/12/03 01:58:04;;;;;;;3.20;1.50;;;;;;;;;;5036276;28;20018;-53
2021/12/03 02:00:33;;;;;;;2.13;1.45;;;;;;;;;;5036082;28;20018;-53
2021/12/03 02:02:59;;;;;;;3.15;1.98;;;;;;;;;;5035877;28;20032;-51
2021/12/03 02:05:26;;;;;;;4.82;1.70;;;;;;;;;;5035895;28;20033;-54
2021/12/03 02:07:52;;;;;;;2.97;1.63;;;;;;;;;;5036285;28;20371;-53
2021/12/03 02:10:20;;;;;;;4.15;1.90;;;;;;;;;;5036332;28;20408;-50
2021/12/03 02:12:46;;;;;;;3.83;1.40;;;;;;;;;;5035742;28;20039;-53
2021/12/03 02:15:13;;;;;;;5.43;1.80;;;;;;;;;;5035807;28;20108;-53
2021/12/03 02:17:39;;;;;;;2.15;1.38;;;;;;;;;;5035961;28;20409;-52
2021/12/03 02:20:10;;;;;;;5.32;1.70;;;;;;;;;;5035855;28;20018;-52
2021/12/03 02:22:37;;;;;;;4.30;1.70;;;;;;;;;;5036128;28;20101;-52
2021/12/03 02:25:04;;;;;;;3.72;1.80;;;;;;;;;;5036372;28;20041;-52
2021/12/03 02:27:30;;;;;;;3.00;1.05;;;;;;;;;;5035618;28;20048;-52
2021/12/03 02:29:56;;;;;;;5.90;1.30;;;;;;;;;;5034670;28;20121;-51
2021/12/03 02:32:23;;;;;;;3.53;1.30;;;;;;;;;;5035665;28;20028;-53
2021/12/03 02:34:49;;;;;;;2.40;1.42;;;;;;;;;;5035838;28;20087;-52
2021/12/03 02:37:15;;;;;;;2.10;1.15;;;;;;;;;;5035568;28;20024;-53
2021/12/03 02:39:42;;;;;;;2.58;1.10;;;;;;;;;;5035494;28;20024;-48
2021/12/03 02:42:08;;;;;;;3.38;1.45;;;;;;;;;;5035951;28;20068;-46
2021/12/03 02:44:34;;;;;;;2.38;1.45;;;;;;;;;;5035794;28;20021;-47
2021/12/03 02:47:00;;;;;;;3.05;1.17;;;;;;;;;;5035242;28;20481;-47
2021/12/03 02:49:27;;;;;;;4.47;1.95;;;;;;;;;;5035539;28;20025;-52
2021/12/03 02:51:53;;;;;;;2.55;1.70;;;;;;;;;;5035525;28;20037;-50
2021/12/03 02:54:19;;;;;;;5.47;1.75;;;;;;;;;;5035197;28;20040;-53
2021/12/03 02:56:45;;;;;;;6.25;1.52;;;;;;;;;;5035449;28;20028;-52
2021/12/03 02:59:11;;;;;;;4.78;1.50;;;;;;;;;;5035205;28;20021;-51
2021/12/03 03:01:37;;;;;;;5.38;2.28;;;;;;;;;;5035153;28;20025;-54
2021/12/03 03:04:04;;;;;;;11.23;4.45;;;;;;;;;;5034726;28;20033;-50
2021/12/03 03:06:30;;;;;;;14.50;6.28;;;;;;;;;;5035046;28;20022;-50
2021/12/03 03:08:56;;;;;;;3.30;1.75;;;;;;;;;;5034866;28;20509;-51
2021/12/03 03:11:23;;;;;;;4.03;2.17;;;;;;;;;;5035062;28;20029;-51
2021/12/03 03:13:50;;;;;;;12.05;2.85;;;;;;;;;;5034966;28;20043;-48
2021/12/03 03:16:17;;;;;;;4.25;2.20;;;;;;;;;;5035129;28;20075;-54
2021/12/03 03:18:43;;;;;;;2.95;1.50;;;;;;;;;;5034938;28;20025;-49
2021/12/03 03:21:09;;;;;;;4.57;1.40;;;;;;;;;;5034677;28;20100;-50
2021/12/03 03:23:36;;;;;;;2.78;1.25;;;;;;;;;;5034717;28;20049;-52
2021/12/03 03:26:03;;;;;;;3.28;1.23;;;;;;;;;;5034841;28;20026;-51
2021/12/03 03:28:29;;;;;;;2.80;1.17;;;;;;;;;;5034955;28;20021;-52
2021/12/03 03:30:57;;;;;;;6.05;1.55;;;;;;;;;;5034927;28;20405;-53
2021/12/03 03:33:23;;;;;;;1.50;0.93;;;;;;;;;;5034385;28;20032;-52
2021/12/03 03:35:49;;;;;;;2.38;1.17;;;;;;;;;;5034529;28;20030;-52
2021/12/03 03:38:16;;;;;;;3.70;1.40;;;;;;;;;;5034613;28;20032;-53
2021/12/03 03:40:43;;;;;;;2.17;1.10;;;;;;;;;;5034651;28;20017;-52
2021/12/03 03:43:09;;;;;;;3.08;1.50;;;;;;;;;;5034352;28;20028;-52
2021/12/03 03:45:36;;;;;;;5.50;1.98;;;;;;;;;;5034748;28;20040;-53
2021/12/03 03:48:03;;;;;;;10.65;3.50;;;;;;;;;;5034433;28;20037;-52
2021/12/03 03:50:29;;;;;;;16.33;5.75;;;;;;;;;;5034018;28;20421;-54
2021/12/03 03:52:55;;;;;;;60.25;23.88;;;;;;;;;;5034187;28;20022;-51
2021/12/03 03:55:22;;;;;;;3.55;1.90;;;;;;;;;;5034397;28;20025;-50
2021/12/03 03:57:49;;;;;;;9.30;3.70;;;;;;;;;;5033987;28;20022;-51
2021/12/03 04:00:16;;;;;;;7.53;4.53;;;;;;;;;;5033928;28;20078;-53
2021/12/03 04:02:42;;;;;;;4.60;2.17;;;;;;;;;;5034086;28;20038;-50
2021/12/03 04:05:09;;;;;;;7.10;2.10;;;;;;;;;;5034185;28;20026;-54
2021/12/03 04:07:35;;;;;;;3.45;1.50;;;;;;;;;;5034082;28;20057;-53
2021/12/03 04:10:02;;;;;;;5.53;2.35;;;;;;;;;;5033948;28;20026;-52
2021/12/03 04:12:28;;;;;;;5.55;2.33;;;;;;;;;;5034462;28;20026;-50
2021/12/03 04:14:54;;;;;;;5.03;1.80;;;;;;;;;;5033149;28;20411;-53
2021/12/03 04:17:20;;;;;;;7.93;2.67;;;;;;;;;;5033456;28;20024;-53
2021/12/03 04:19:46;;;;;;;5.22;2.40;;;;;;;;;;5034134;28;20018;-54
2021/12/03 04:22:15;;;;;;;4.55;1.95;;;;;;;;;;5033943;28;20029;-52
2021/12/03 04:24:42;;;;;;;3.85;1.90;;;;;;;;;;5032062;28;20502;-52
2021/12/03 04:27:08;;;;;;;5.53;2.45;;;;;;;;;;5033767;28;20030;-51
2021/12/03 04:29:35;;;;;;;7.50;2.70;;;;;;;;;;5033566;28;20021;-52
2021/12/03 04:32:01;;;;;;;5.47;2.30;;;;;;;;;;5032535;28;20471;-51
2021/12/03 04:34:27;;;;;;;4.00;2.00;;;;;;;;;;5033026;28;20487;-51
2021/12/03 04:36:53;;;;;;;4.15;2.40;;;;;;;;;;5033723;28;20148;-53
2021/12/03 04:39:20;;;;;;;9.27;1.73;;;;;;;;;;5033520;28;20028;-52
2021/12/03 04:41:46;;;;;;;3.95;1.88;;;;;;;;;;5033533;28;20070;-52
2021/12/03 04:44:12;;;;;;;7.32;2.03;;;;;;;;;;5033353;28;20029;-47
2021/12/03 04:46:38;;;;;;;5.38;2.25;;;;;;;;;;5033169;28;20021;-53
2021/12/03 04:49:04;;;;;;;6.25;2.75;;;;;;;;;;5033210;28;20148;-53
2021/12/03 04:51:30;;;;;;;6.88;2.60;;;;;;;;;;5032658;28;20501;-49
2021/12/03 04:53:56;;;;;;;4.57;2.45;;;;;;;;;;5033570;28;20462;-49
2021/12/03 04:56:23;;;;;;;6.18;2.53;;;;;;;;;;5033428;28;20022;-52
2021/12/03 04:58:49;;;;;;;7.55;2.78;;;;;;;;;;5033328;28;20025;-53
2021/12/03 05:01:15;;;;;;;9.27;2.45;;;;;;;;;;5033307;28;20031;-51
2021/12/03 05:03:41;;;;;;;4.38;2.10;;;;;;;;;;5032770;28;20021;-50
2021/12/03 05:06:09;;;;;;;8.80;3.40;;;;;;;;;;5032155;28;20036;-50
2021/12/03 05:08:36;;;;;;;10.82;4.32;;;;;;;;;;5033166;28;20022;-53
2021/12/03 05:11:02;;;;;;;14.02;5.65;;;;;;;;;;5033315;28;20104;-52
2021/12/03 05:13:32;;;;;;;6.32;2.95;;;;;;;;;;5032910;28;20033;-49
2021/12/03 05:15:59;;;;;;;7.78;3.05;;;;;;;;;;5033227;28;20108;-51
2021/12/03 05:18:27;;;;;;;9.52;3.08;;;;;;;;;;5033012;28;20031;-52
2021/12/03 05:21:06;;;;;;;10.10;4.03;;;;;;;;;;5032943;28;20367;-54
2021/12/03 05:23:33;;;;;;;9.23;3.95;;;;;;;;;;5032879;28;20073;-57
2021/12/03 05:26:00;;;;;;;11.50;4.95;;;;;;;;;;5034163;28;20087;-52
2021/12/03 05:28:27;;;;;;;10.75;4.53;;;;;;;;;;5035274;28;20021;-53
2021/12/03 05:30:53;;;;;;;14.48;4.78;;;;;;;;;;5036742;28;20335;-51
2021/12/03 05:33:20;;;;;;;9.98;5.32;;;;;;;;;;5035429;28;20418;-51
2021/12/03 05:35:46;;;;;;;9.43;4.95;;;;;;;;;;5036933;28;20033;-52
2021/12/03 05:38:12;;;;;;;8.52;4.00;;;;;;;;;;5037092;28;20025;-51
2021/12/03 05:40:38;;;;;;;7.40;3.28;;;;;;;;;;5036161;28;20455;-50
2021/12/03 05:43:05;;;;;;;7.80;3.17;;;;;;;;;;5036821;28;20030;-54
2021/12/03 05:45:33;;;;;;;8.15;3.35;;;;;;;;;;5036723;28;20445;-52
2021/12/03 05:48:00;;;;;;;11.50;5.90;;;;;;;;;;5036201;28;20017;-52
2021/12/03 05:50:26;;;;;;;7.90;4.68;;;;;;;;;;5036727;28;20029;-53
2021/12/03 05:52:54;;;;;;;10.45;4.30;;;;;;;;;;5036198;28;20029;-52
2021/12/03 05:55:20;;;;;;;10.48;5.93;;;;;;;;;;5036786;28;20034;-51
2021/12/03 05:57:47;;;;;;;10.20;6.07;;;;;;;;;;5036383;28;20022;-52
2021/12/03 06:00:17;;;;;;;14.75;7.10;;;;;;;;;;5036140;28;20025;-52
2021/12/03 06:02:44;;;;;;;11.65;7.00;;;;;;;;;;5036386;28;20079;-53
2021/12/03 06:05:11;;;;;;;11.90;6.90;;;;;;;;;;5036225;28;20433;-53
2021/12/03 06:07:37;;;;;;;33.53;12.35;;;;;;;;;;5036314;28;20022;-54
2021/12/03 06:10:04;;;;;;;22.30;10.43;;;;;;;;;;5036146;28;20097;-53
2021/12/03 06:12:30;;;;;;;24.27;11.20;;;;;;;;;;5035003;28;20030;-52
2021/12/03 06:14:56;;;;;;;31.48;14.40;;;;;;;;;;5035112;28;20113;-51
2021/12/03 06:17:22;;;;;;;23.23;10.07;;;;;;;;;;5035171;28;20034;-50
2021/12/03 06:19:49;;;;;;;27.00;11.52;;;;;;;;;;5034258;28;20028;-53
2021/12/03 06:22:15;;;;;;;24.58;10.52;;;;;;;;;;5036006;28;20025;-51
2021/12/03 06:24:41;;;;;;;20.48;7.85;;;;;;;;;;5035359;28;20049;-53
2021/12/03 06:27:07;;;;;;;13.93;5.72;;;;;;;;;;5035748;28;20155;-48
2021/12/03 06:29:34;;;;;;;15.13;6.72;;;;;;;;;;5035695;28;20022;-49
2021/12/03 06:32:00;;;;;;;17.65;7.60;;;;;;;;;;5035838;28;20036;-50
2021/12/03 06:34:26;;;;;;;16.20;6.88;;;;;;;;;;5035471;28;20029;-48
2021/12/03 06:36:52;;;;;;;13.10;5.22;;;;;;;;;;5034731;28;20036;-51
2021/12/03 06:39:18;;;;;;;8.82;3.45;;;;;;;;;;5035259;28;20025;-51
2021/12/03 06:41:44;;;;;;;9.50;4.28;;;;;;;;;;5035005;28;20030;-49
2021/12/03 06:44:11;;;;;;;5.65;3.17;;;;;;;;;;5035406;28;20378;-48
2021/12/03 06:46:37;;;;;;;5.95;2.53;;;;;;;;;;5035328;28;20026;-51
2021/12/03 06:49:04;;;;;;;11.32;4.30;;;;;;;;;;5034200;28;20370;-53
2021/12/03 06:51:31;;;;;;;8.95;3.65;;;;;;;;;;5035038;28;20017;-51
2021/12/03 06:54:03;;;;;;;8.30;3.90;;;;;;;;;;5035207;28;20167;-50
2021/12/03 06:56:48;;;;;;;7.88;3.00;;;;;;;;;;5035629;28;20429;-49
2021/12/03 06:59:15;;;;;;;8.13;3.08;;;;;;;;;;5035253;28;20025;-47
2021/12/03 07:01:41;;;;;;;3.25;1.70;;;;;;;;;;5035029;28;20044;-50
2021/12/03 07:04:08;;;;;;;3.28;1.73;;;;;;;;;;5035160;28;20021;-49
2021/12/03 07:06:34;;;;;;;4.93;2.17;;;;;;;;;;5034386;28;20025;-47
2021/12/03 07:09:00;;;;;;;4.82;2.15;;;;;;;;;;5034086;28;20022;-48
2021/12/03 07:11:26;;;;;;;1.98;1.02;;;;;;;;;;5034464;28;20104;-49
2021/12/03 07:13:52;;;;;;;3.38;1.63;;;;;;;;;;5034159;28;20087;-50
2021/12/03 07:16:19;;;;;;;1.88;1.23;;;;;;;;;;5034480;28;20352;-49
2021/12/03 07:18:45;;;;;;;2.05;1.00;;;;;;;;;;5035403;28;20057;-48
2021/12/03 07:21:11;;;;;;;3.03;1.17;;;;;;;;;;5035100;28;20029;-46
2021/12/03 07:23:38;;;;;;;2.70;0.90;;;;;;;;;;5034706;28;20506;-47
2021/12/03 07:26:04;;;;;;;2.67;0.80;;;;;;;;;;5035064;28;20018;-46
2021/12/03 07:28:31;;;;;;;3.35;0.85;;;;;;;;;;5034659;28;20072;-49
2021/12/03 07:30:57;;;;;;;1.80;1.08;;;;;;;;;;5034427;28;20030;-52
2021/12/03 07:33:24;;;;;;;2.00;1.05;;;;;;;;;;5034205;28;20025;-53
2021/12/03 07:35:50;;;;;;;2.13;0.90;;;;;;;;;;5034627;28;20079;-48
2021/12/03 07:38:17;;;;;;;2.08;1.00;;;;;;;;;;5034777;28;20040;-48
2021/12/03 07:40:48;;;;;;;2.25;1.23;;;;;;;;;;5034513;28;20100;-51
2021/12/03 07:43:16;;;;;;;3.42;1.20;;;;;;;;;;5034716;28;20045;-47
2021/12/03 07:45:42;;;;;;;1.88;0.70;;;;;;;;;;5034582;28;20030;-48
2021/12/03 07:48:08;;;;;;;1.92;1.17;;;;;;;;;;5034308;28;20044;-46
2021/12/03 07:50:36;;;;;;;1.75;0.88;;;;;;;;;;5034127;28;20090;-48
2021/12/03 07:53:04;;;;;;;2.00;0.98;;;;;;;;;;5034294;28;20110;-48
2021/12/03 07:55:30;;;;;;;1.95;0.98;;;;;;;;;;5033937;28;20104;-49
2021/12/03 07:57:57;;;;;;;3.78;1.10;;;;;;;;;;5034303;28;20463;-48
2021/12/03 08:00:23;;;;;;;2.17;1.20;;;;;;;;;;5034077;28;20474;-49
2021/12/03 08:02:49;;;;;;;2.20;1.02;;;;;;;;;;5034508;28;20037;-48
2021/12/03 08:05:15;;;;;;;1.60;1.10;;;;;;;;;;5034489;28;20086;-49
2021/12/03 08:07:46;;;;;;;2.92;0.95;;;;;;;;;;5033997;28;20017;-45
2021/12/03 08:10:13;;;;;;;2.22;0.95;;;;;;;;;;5034323;28;20025;-48
2021/12/03 08:12:46;;;;;;;1.75;0.82;;;;;;;;;;5033639;28;20151;-46
2021/12/03 08:15:12;;;;;;;4.82;1.17;;;;;;;;;;5033906;28;20083;-48
2021/12/03 08:17:38;;;;;;;2.25;1.25;;;;;;;;;;5034293;28;20105;-53
2021/12/03 08:20:06;;;;;;;3.20;1.35;;;;;;;;;;5034198;28;20051;-48
2021/12/03 08:22:32;;;;;;;2.80;1.85;;;;;;;;;;5033993;28;20347;-52
2021/12/03 08:24:58;;;;;;;2.97;1.45;;;;;;;;;;5034129;28;20064;-51
2021/12/03 08:27:24;;;;;;;6.95;2.05;;;;;;;;;;5033888;28;20100;-51
2021/12/03 08:29:50;;;;;;;4.38;1.98;;;;;;;;;;5033544;28;20022;-48
2021/12/03 08:32:17;;;;;;;4.47;2.22;;;;;;;;;;5033620;28;20025;-51
2021/12/03 08:34:43;;;;;;;4.30;1.70;;;;;;;;;;5034036;28;20026;-50
2021/12/03 08:37:10;;;;;;;3.03;1.83;;;;;;;;;;5033805;28;20049;-48
2021/12/03 08:39:37;;;;;;;3.58;1.50;;;;;;;;;;5033350;28;20100;-48
2021/12/03 08:42:04;;;;;;;4.20;1.90;;;;;;;;;;5033382;28;20028;-47
2021/12/03 08:44:30;;;;;;;2.75;1.38;;;;;;;;;;5033181;28;20537;-46
2021/12/03 08:47:02;;;;;;;5.70;1.70;;;;;;;;;;5033454;28;20029;-47
2021/12/03 08:49:35;;;;;;;2.20;1.20;;;;;;;;;;5033706;28;20103;-48
2021/12/03 08:57:13;;;;;;;3.03;1.40;;;;;;;;;;5033336;28;20057;-51
2021/12/03 08:59:39;;;;;;;3.45;1.17;;;;;;;;;;5033503;28;20044;-49
2021/12/03 09:02:06;;;;;;;3.58;1.48;;;;;;;;;;5037006;28;20030;-50
2021/12/03 09:04:32;;;;;;;4.30;1.98;;;;;;;;;;5037332;28;20026;-51
2021/12/03 09:06:59;;;;;;;5.32;1.90;;;;;;;;;;5037447;28;20032;-50
2021/12/03 09:09:26;;;;;;;3.75;1.95;;;;;;;;;;5037511;28;20021;-50
2021/12/03 09:11:52;;;;;;;5.47;3.08;;;;;;;;;;5037241;28;20125;-51
2021/12/03 09:17:01;;;;;;;2.92;1.67;;;;;;;;;;5038076;28;20388;-51
2021/12/03 09:23:01;;;;;;;4.70;2.10;;;;;;;;;;5026646;28;20450;-54
2021/12/03 09:25:07;;;;;;;2.75;1.45;;;;;;;;;;5033424;28;20467;-51
2021/12/03 09:27:33;;;;;;;2.13;1.13;;;;;;;;;;5037312;28;20021;-51
2021/12/03 09:29:59;;;;;;;3.92;1.42;;;;;;;;;;5036693;28;20022;-51
2021/12/03 09:32:30;;;;;;;4.28;1.40;;;;;;;;;;5036857;28;20033;-50
2021/12/03 09:34:56;;;;;;;6.28;2.67;;;;;;;;;;5036806;28;20041;-47
2021/12/03 09:37:22;;;;;;;6.93;3.05;;;;;;;;;;5036747;28;20029;-46
2021/12/03 09:39:48;;;;;;;8.27;3.53;;;;;;;;;;5036807;28;20049;-48
2021/12/03 09:42:17;;;;;;;6.65;2.42;;;;;;;;;;5036856;28;20150;-50
2021/12/03 09:44:44;;;;;;;6.95;2.67;;;;;;;;;;5036919;28;20029;-51
2021/12/03 09:47:11;;;;;;;8.18;3.42;;;;;;;;;;5036565;28;20021;-52
2021/12/03 09:49:38;;;;;;;7.30;2.47;;;;;;;;;;5036651;28;20036;-47
2021/12/03 09:54:40;;;;;;;4.50;2.10;;;;;;;;;;5036519;28;20037;-48
2021/12/03 09:57:15;;;;;;;4.57;2.13;;;;;;;;;;5036766;28;20045;-49
2021/12/03 10:15:14;;;;;;;4.00;1.85;;;;;;;;;;5036357;28;20068;-52
2021/12/03 10:17:48;;;;;;;3.75;1.80;;;;;;;;;;5036522;28;20025;-50
2021/12/03 10:29:05;;;;;;;4.43;1.58;;;;;;;;;;5035958;28;20030;-49
2021/12/03 10:55:45;;;;;;;8.70;4.20;;;;;;;;;;5035287;28;20383;-50
2021/12/03 11:42:06;;;;;;;14.93;8.02;;;;;;;;;;5034756;28;20026;-54
2021/12/03 12:08:05;;;;;;;27.70;14.00;;;;;;;;;;5033993;28;20032;-50
2021/12/03 12:10:27;;;;;;;30.30;14.30;;;;;;;;;;5033700;28;20071;-52
2021/12/03 12:35:55;;;;;;;23.30;10.77;;;;;;;;;;5028802;28;20213;-48
2021/12/03 14:37:50;;;;;;;15.10;7.03;;;;;;;;;;5015814;28;20505;-49
2021/12/03 14:43:12;;;;;;;11.05;6.30;;;;;;;;;;5015895;28;20475;-49
2021/12/03 14:56:16;;;;;;;22.83;9.88;;;;;;;;;;5015793;28;20034;-50
2021/12/03 14:58:54;;;;;;;25.70;10.40;;;;;;;;;;5015128;28;20026;-50
2021/12/03 15:06:33;;;;;;;19.67;10.30;;;;;;;;;;5035364;28;20025;-50
2021/12/03 15:09:06;;;;;;;22.10;9.70;;;;;;;;;;5035558;28;20025;-52
2021/12/03 15:25:02;;;;;;;20.15;11.13;;;;;;;;;;5034249;28;20478;-47
2021/12/03 15:33:10;;;;;;;23.35;11.10;;;;;;;;;;5034609;28;20475;-51
2021/12/03 15:39:05;;;;;;;22.40;11.73;;;;;;;;;;5033496;28;20037;-49
2021/12/03 16:51:22;;;;;;;19.65;9.48;;;;;;;;;;5033620;28;20036;-52
2021/12/03 16:53:51;;;;;;;17.88;9.10;;;;;;;;;;5032347;28;20041;-50
2021/12/03 16:56:23;;;;;;;18.02;9.07;;;;;;;;;;5033282;28;20037;-52
2021/12/03 16:58:49;;;;;;;12.05;7.20;;;;;;;;;;5033569;28;20427;-51
2021/12/03 17:01:42;;;;;;;17.25;8.65;;;;;;;;;;5033171;28;20159;-50
2021/12/03 17:22:59;;;;;;;16.23;8.98;;;;;;;;;;5033947;28;20063;-50
2021/12/03 17:59:54;;;;;;;30.35;14.20;;;;;;;;;;5036611;28;20033;-52
2021/12/03 18:45:55;;;;;;;14.13;7.65;;;;;;;;;;5035683;28;20083;-54
2021/12/03 18:54:39;;;;;;;15.70;8.07;;;;;;;;;;5035501;28;20041;-50
2021/12/03 18:59:00;;;;;;;16.02;8.05;;;;;;;;;;5035068;28;20021;-54
2021/12/03 19:01:29;;;;;;;23.00;10.05;;;;;;;;;;5035520;28;20024;-50
2021/12/03 19:04:08;;;;;;;17.45;8.80;;;;;;;;;;5034950;28;20039;-53
2021/12/03 19:09:10;;;;;;;18.20;9.02;;;;;;;;;;5035339;28;20029;-51
2021/12/03 19:12:06;;;;;;;20.33;8.73;;;;;;;;;;5035539;28;20021;-53
2021/12/03 19:14:35;;;;;;;10.98;5.47;;;;;;;;;;5034523;28;20069;-53
2021/12/03 19:17:02;;;;;;;15.35;7.05;;;;;;;;;;5033847;28;20028;-52
2021/12/03 19:19:30;;;;;;;12.18;6.32;;;;;;;;;;5035085;28;20027;-52
2021/12/03 19:21:58;;;;;;;13.15;6.45;;;;;;;;;;5034661;28;20033;-49
2021/12/03 19:24:25;;;;;;;12.27;6.35;;;;;;;;;;5033484;28;20053;-52
2021/12/03 19:26:51;;;;;;;11.30;5.78;;;;;;;;;;5033991;28;20022;-49
2021/12/03 19:29:19;;;;;;;11.15;5.43;;;;;;;;;;5032786;28;20025;-51
2021/12/03 19:31:50;;;;;;;10.48;6.22;;;;;;;;;;5035011;28;20021;-52
2021/12/03 19:34:19;;;;;;;12.27;6.25;;;;;;;;;;5033645;28;20076;-50
2021/12/03 19:36:46;;;;;;;12.70;5.25;;;;;;;;;;5034508;28;20026;-50
2021/12/03 19:39:16;;;;;;;10.48;5.13;;;;;;;;;;5034251;28;20049;-51
2021/12/03 19:47:26;;;;;;;15.05;6.80;;;;;;;;;;5013116;28;20092;-48
2021/12/03 19:50:04;;;;;;;10.38;6.63;;;;;;;;;;5014028;28;20447;-52
2021/12/03 19:52:39;;;;;;;13.10;7.68;;;;;;;;;;5014494;28;20570;-53
2021/12/03 19:55:06;;;;;;;12.40;5.97;;;;;;;;;;5014594;28;20038;-53
2021/12/03 19:57:32;;;;;;;19.40;6.70;;;;;;;;;;5014914;28;20105;-52
2021/12/03 20:00:07;;;;;;;13.68;7.10;;;;;;;;;;5013832;28;20032;-49
2021/12/03 20:02:40;;;;;;;13.32;5.95;;;;;;;;;;5014047;28;20030;-52
2021/12/03 20:05:35;;;;;;;9.00;4.78;;;;;;;;;;5020147;28;20021;-53
2021/12/03 20:08:18;;;;;;;8.45;4.78;;;;;;;;;;5021738;28;20024;-55
2021/12/03 20:10:48;;;;;;;7.03;3.78;;;;;;;;;;5034068;28;20484;-58
2021/12/03 20:13:21;;;;;;;20.23;8.07;;;;;;;;;;5033497;28;20025;-56
2021/12/03 20:21:20;;;;;;;11.30;3.90;;;;;;;;;;5031096;28;20029;-55
2021/12/03 20:24:08;;;;;;;10.80;5.10;;;;;;;;;;5030898;28;20057;-57
2021/12/03 20:31:34;;;;;;;11.88;5.07;;;;;;;;;;5032603;28;20030;-53
2021/12/03 20:34:22;;;;;;;13.68;6.28;;;;;;;;;;5033145;28;20021;-54
2021/12/03 20:37:13;;;;;;;9.95;5.22;;;;;;;;;;5032626;28;20061;-53
2021/12/03 20:39:39;;;;;;;12.35;5.53;;;;;;;;;;5032835;28;20088;-52
2021/12/03 20:42:29;;;;;;;13.07;5.50;;;;;;;;;;5032555;28;20470;-52
2021/12/03 20:58:03;;;;;;;11.32;5.47;;;;;;;;;;5012626;28;20026;-50
2021/12/03 21:08:40;;;;;;;13.38;5.80;;;;;;;;;;5013243;28;20553;-52
2021/12/03 21:11:19;;;;;;;11.38;5.78;;;;;;;;;;5013731;28;20432;-52
2021/12/03 21:13:47;;;;;;;9.73;5.18;;;;;;;;;;5013442;28;20475;-51
2021/12/03 21:23:46;;;;;;;13.20;6.07;;;;;;;;;;5033127;28;20049;-54
2021/12/03 21:26:17;;;;;;;14.63;7.18;;;;;;;;;;5032939;28;20026;-54
2021/12/03 21:28:52;;;;;;;12.50;6.72;;;;;;;;;;5033124;28;20489;-53
2021/12/03 21:31:32;;;;;;;14.05;7.03;;;;;;;;;;5032897;28;20041;-53
2021/12/03 21:39:41;;;;;;;10.65;5.72;;;;;;;;;;5032733;28;20032;-53
2021/12/03 21:42:07;;;;;;;14.40;6.57;;;;;;;;;;5033452;28;20029;-51
2021/12/03 21:44:34;;;;;;;17.45;8.32;;;;;;;;;;5032943;28;20021;-53
2021/12/03 21:47:00;;;;;;;18.35;9.70;;;;;;;;;;5032884;28;20022;-54
2021/12/03 21:49:28;;;;;;;16.23;8.07;;;;;;;;;;5033096;28;20049;-52
2021/12/03 21:51:54;;;;;;;17.85;9.15;;;;;;;;;;5032810;28;20029;-52
2021/12/03 21:54:20;;;;;;;19.83;9.68;;;;;;;;;;5032552;28;20032;-53
2021/12/03 21:56:47;;;;;;;18.85;8.73;;;;;;;;;;5032826;28;20025;-53
2021/12/03 21:59:17;;;;;;;18.45;9.60;;;;;;;;;;5032956;28;20056;-48
2021/12/03 22:01:43;;;;;;;17.33;8.95;;;;;;;;;;5033519;28;20072;-52
2021/12/03 22:04:10;;;;;;;17.60;8.52;;;;;;;;;;5032641;28;20026;-54
2021/12/03 22:06:36;;;;;;;17.35;8.32;;;;;;;;;;5032761;28;20029;-52
2021/12/03 22:09:03;;;;;;;15.13;7.72;;;;;;;;;;5034940;28;20368;-50
2021/12/03 22:11:30;;;;;;;17.67;8.20;;;;;;;;;;5036237;28;20044;-51
2021/12/03 22:13:57;;;;;;;14.50;7.40;;;;;;;;;;5036462;28;20049;-50
2021/12/03 22:16:23;;;;;;;19.45;8.57;;;;;;;;;;5035927;28;20017;-52
2021/12/03 22:18:50;;;;;;;18.55;7.50;;;;;;;;;;5036205;28;20018;-51
2021/12/03 22:21:18;;;;;;;15.68;7.50;;;;;;;;;;5035839;28;20026;-54
2021/12/03 22:23:44;;;;;;;15.50;7.70;;;;;;;;;;5036464;28;20045;-51
2021/12/03 22:26:11;;;;;;;13.93;7.05;;;;;;;;;;5035733;28;20378;-49
2021/12/03 22:28:38;;;;;;;13.13;6.45;;;;;;;;;;5036089;28;20049;-50
2021/12/03 22:31:05;;;;;;;18.42;7.95;;;;;;;;;;5036569;28;20025;-57
2021/12/03 22:33:32;;;;;;;16.60;7.50;;;;;;;;;;5034631;28;20037;-49
2021/12/03 22:35:58;;;;;;;19.63;8.02;;;;;;;;;;5035749;28;20433;-47
2021/12/03 22:38:25;;;;;;;17.30;8.10;;;;;;;;;;5036352;28;20029;-53
2021/12/03 22:40:51;;;;;;;20.00;8.57;;;;;;;;;;5035765;28;20479;-47
2021/12/03 22:43:17;;;;;;;13.75;7.68;;;;;;;;;;5035857;28;20030;-49
2021/12/03 22:50:59;;;;;;;29.23;12.77;;;;;;;;;;5035640;28;20026;-55
2021/12/03 22:53:25;;;;;;;19.02;8.90;;;;;;;;;;5035537;28;20033;-49
2021/12/03 22:55:52;;;;;;;13.20;6.97;;;;;;;;;;5035622;28;20025;-54
2021/12/03 22:58:18;;;;;;;17.10;8.05;;;;;;;;;;5035413;28;20032;-53
2021/12/03 23:00:44;;;;;;;16.27;7.68;;;;;;;;;;5035184;28;20025;-53
2021/12/03 23:03:14;;;;;;;16.05;7.25;;;;;;;;;;5035819;28;20481;-51
2021/12/03 23:05:41;;;;;;;16.35;7.72;;;;;;;;;;5035513;28;20025;-49
2021/12/03 23:08:09;;;;;;;14.63;7.00;;;;;;;;;;5035070;28;20387;-54
2021/12/03 23:10:36;;;;;;;19.67;8.15;;;;;;;;;;5035433;28;20030;-54
2021/12/03 23:13:03;;;;;;;20.70;9.05;;;;;;;;;;5035099;28;20502;-50
2021/12/03 23:15:29;;;;;;;17.50;8.52;;;;;;;;;;5035198;28;20454;-53
2021/12/03 23:17:57;;;;;;;16.95;8.98;;;;;;;;;;5034721;28;20379;-49
2021/12/03 23:20:23;;;;;;;19.67;8.73;;;;;;;;;;5034317;28;20112;-49
2021/12/03 23:22:50;;;;;;;17.00;7.80;;;;;;;;;;5020009;28;20026;-53
2021/12/03 23:25:16;;;;;;;21.52;9.85;;;;;;;;;;5023968;28;20046;-51
2021/12/03 23:27:43;;;;;;;20.20;9.73;;;;;;;;;;5026800;28;20022;-52
2021/12/03 23:30:09;;;;;;;20.30;10.63;;;;;;;;;;5035034;28;20014;-53
2021/12/03 23:32:36;;;;;;;21.15;9.00;;;;;;;;;;5034664;28;20036;-50
2021/12/03 23:35:04;;;;;;;21.70;9.43;;;;;;;;;;5034483;28;20132;-51
2021/12/03 23:37:30;;;;;;;21.75;9.50;;;;;;;;;;5034106;28;20020;-52
2021/12/03 23:39:56;;;;;;;15.35;7.85;;;;;;;;;;5032292;28;20026;-53
2021/12/03 23:42:22;;;;;;;16.98;8.13;;;;;;;;;;5015036;28;20032;-48
2021/12/03 23:44:49;;;;;;;16.08;7.43;;;;;;;;;;5015056;28;20029;-51